Terminal Aerodrome Forecast
Issued by NWS

Home | Current Version | Previous Version | Text Only | Print | Product List | Glossary On
Versions: 1 2 3 4 5 6 7 8 9 10 11 12 13 14
308
FTUS43 KDTX 300537
TAFMBS
TAF
KMBS 300537Z 3006/3106 25006KT P6SM SCT070
     FM301400 24014G20KT P6SM BKN045
     FM301700 25016G25KT P6SM BKN060
     FM310000 24008KT P6SM BKN080=

USA.gov is the U.S. government's official web portal to all federal, state and local government web resources and services.